CSA899 LKPR-LKKV
Flight info
| Callsign | CSA899 |
|---|---|
| Flight time | 0h 28m |
| Altitude | 16000 |
| Route | BALTU |
| Aircraft | A20N/M-SDE2E3FGHIRWXY/LB1 |
Departure
| Time | 2026-05-05 18:21 |
|---|---|
| Airport | Václav Havel Airport Prague (LKPR) |
Arrival
| Time | 2026-05-05 18:49 |
|---|---|
| Airport | Karlovy Vary Airport (LKKV) |
| Time | Latitude | Longitude | Altitude | Speed | Heading |
|---|---|---|---|---|---|
| 2026-05-05 17:58 | 50.10371 | 14.26748 | 1171 ft | 0 kts | 34° |
| 2026-05-05 18:11 | 50.10366 | 14.26743 | 1174 ft | 2 kts | 33° |
| 2026-05-05 18:12 | 50.10353 | 14.26729 | 1169 ft | 2 kts | 35° |
| 2026-05-05 18:12 | 50.10339 | 14.26715 | 1170 ft | 2 kts | 3° |
| 2026-05-05 18:12 | 50.10324 | 14.26721 | 1170 ft | 2 kts | 318° |
| 2026-05-05 18:12 | 50.10316 | 14.26732 | 1169 ft | 1 kts | 313° |
| 2026-05-05 18:15 | 50.10324 | 14.26716 | 1170 ft | 7 kts | 303° |
| 2026-05-05 18:15 | 50.10344 | 14.26647 | 1172 ft | 6 kts | 273° |
| 2026-05-05 18:15 | 50.10319 | 14.26598 | 1173 ft | 8 kts | 218° |
| 2026-05-05 18:16 | 50.10259 | 14.26510 | 1175 ft | 14 kts | 251° |
| 2026-05-05 18:16 | 50.10296 | 14.26395 | 1174 ft | 11 kts | 302° |
| 2026-05-05 18:16 | 50.10336 | 14.26300 | 1173 ft | 10 kts | 308° |
| 2026-05-05 18:16 | 50.10377 | 14.26218 | 1175 ft | 9 kts | 307° |
| 2026-05-05 18:17 | 50.10414 | 14.26142 | 1175 ft | 8 kts | 307° |
| 2026-05-05 18:17 | 50.10451 | 14.26065 | 1172 ft | 12 kts | 307° |
| 2026-05-05 18:17 | 50.10504 | 14.25961 | 1174 ft | 12 kts | 308° |
| 2026-05-05 18:17 | 50.10550 | 14.25861 | 1173 ft | 11 kts | 303° |
| 2026-05-05 18:18 | 50.10587 | 14.25771 | 1173 ft | 9 kts | 302° |
| 2026-05-05 18:18 | 50.10618 | 14.25690 | 1175 ft | 8 kts | 300° |
| 2026-05-05 18:18 | 50.10641 | 14.25604 | 1174 ft | 9 kts | 271° |
| 2026-05-05 18:18 | 50.10614 | 14.25525 | 1173 ft | 8 kts | 237° |
| 2026-05-05 18:19 | 50.10595 | 14.25447 | 1171 ft | 9 kts | 255° |
| 2026-05-05 18:19 | 50.10581 | 14.25346 | 1170 ft | 10 kts | 258° |
| 2026-05-05 18:19 | 50.10565 | 14.25225 | 1167 ft | 13 kts | 258° |
| 2026-05-05 18:19 | 50.10517 | 14.25148 | 1165 ft | 9 kts | 165° |
| 2026-05-05 18:20 | 50.10487 | 14.25189 | 1169 ft | 0 kts | 125° |
| 2026-05-05 18:20 | 50.10309 | 14.25556 | 1183 ft | 77 kts | 126° |
| 2026-05-05 18:20 | 50.09860 | 14.26486 | 1204 ft | 134 kts | 127° |
| 2026-05-05 18:21 | 50.09248 | 14.27785 | 1480 ft | 156 kts | 125° |
| 2026-05-05 18:21 | 50.08585 | 14.29148 | 2112 ft | 161 kts | 123° |
| 2026-05-05 18:21 | 50.07870 | 14.30580 | 2625 ft | 173 kts | 124° |
| 2026-05-05 18:21 | 50.07090 | 14.32113 | 3023 ft | 191 kts | 126° |
| 2026-05-05 18:22 | 50.06212 | 14.33809 | 3356 ft | 214 kts | 127° |
| 2026-05-05 18:22 | 50.05213 | 14.35742 | 3663 ft | 242 kts | 126° |
| 2026-05-05 18:22 | 50.04634 | 14.36920 | 3888 ft | 256 kts | 126° |
| 2026-05-05 18:23 | 50.03546 | 14.39200 | 4682 ft | 264 kts | 125° |
| 2026-05-05 18:23 | 50.02461 | 14.41523 | 5631 ft | 267 kts | 126° |
| 2026-05-05 18:23 | 50.01362 | 14.43877 | 6530 ft | 271 kts | 126° |
| 2026-05-05 18:23 | 50.00501 | 14.46491 | 7344 ft | 278 kts | 105° |
| 2026-05-05 18:24 | 50.00421 | 14.49520 | 8158 ft | 287 kts | 80° |
| 2026-05-05 18:24 | 50.01217 | 14.52385 | 8976 ft | 296 kts | 53° |
| 2026-05-05 18:24 | 50.02750 | 14.54564 | 9778 ft | 302 kts | 37° |
| 2026-05-05 18:24 | 50.04488 | 14.56563 | 10200 ft | 322 kts | 37° |
| 2026-05-05 18:25 | 50.06359 | 14.58696 | 10547 ft | 342 kts | 37° |
| 2026-05-05 18:25 | 50.07639 | 14.60158 | 10965 ft | 347 kts | 37° |
| 2026-05-05 18:25 | 50.10508 | 14.62547 | 11944 ft | 355 kts | 16° |
| 2026-05-05 18:25 | 50.12960 | 14.63046 | 12691 ft | 358 kts | 356° |
| 2026-05-05 18:26 | 50.15386 | 14.62193 | 13441 ft | 360 kts | 335° |
| 2026-05-05 18:26 | 50.17465 | 14.60039 | 14109 ft | 360 kts | 313° |
| 2026-05-05 18:26 | 50.18931 | 14.56904 | 14774 ft | 359 kts | 294° |
| 2026-05-05 18:26 | 50.19669 | 14.53202 | 15425 ft | 358 kts | 275° |
| 2026-05-05 18:27 | 50.19648 | 14.49397 | 15681 ft | 355 kts | 261° |
| 2026-05-05 18:27 | 50.19318 | 14.45546 | 15749 ft | 350 kts | 260° |
| 2026-05-05 18:27 | 50.18984 | 14.41845 | 15758 ft | 346 kts | 259° |
| 2026-05-05 18:27 | 50.18647 | 14.38133 | 15755 ft | 345 kts | 260° |
| 2026-05-05 18:28 | 50.17982 | 14.30714 | 15756 ft | 345 kts | 260° |
| 2026-05-05 18:28 | 50.17652 | 14.27004 | 15755 ft | 345 kts | 260° |
| 2026-05-05 18:28 | 50.17323 | 14.23287 | 15753 ft | 345 kts | 260° |
| 2026-05-05 18:29 | 50.16994 | 14.19580 | 15758 ft | 345 kts | 260° |
| 2026-05-05 18:29 | 50.16668 | 14.15872 | 15755 ft | 345 kts | 260° |
| 2026-05-05 18:29 | 50.16341 | 14.12151 | 15755 ft | 346 kts | 260° |
| 2026-05-05 18:29 | 50.16010 | 14.08442 | 15756 ft | 346 kts | 260° |
| 2026-05-05 18:30 | 50.15675 | 14.04731 | 15759 ft | 346 kts | 259° |
| 2026-05-05 18:30 | 50.15333 | 14.00987 | 15750 ft | 348 kts | 259° |
| 2026-05-05 18:30 | 50.14994 | 13.97258 | 15747 ft | 346 kts | 259° |
| 2026-05-05 18:30 | 50.14659 | 13.93550 | 15749 ft | 345 kts | 259° |
| 2026-05-05 18:31 | 50.14325 | 13.89847 | 15752 ft | 345 kts | 259° |
| 2026-05-05 18:31 | 50.13989 | 13.86140 | 15750 ft | 345 kts | 259° |
| 2026-05-05 18:31 | 50.13654 | 13.82465 | 15552 ft | 339 kts | 259° |
| 2026-05-05 18:31 | 50.13324 | 13.78865 | 15295 ft | 332 kts | 259° |
| 2026-05-05 18:32 | 50.12996 | 13.75344 | 15053 ft | 325 kts | 259° |
| 2026-05-05 18:32 | 50.12673 | 13.71916 | 14802 ft | 323 kts | 259° |
| 2026-05-05 18:32 | 50.12347 | 13.68464 | 14579 ft | 321 kts | 259° |
| 2026-05-05 18:32 | 50.12024 | 13.65026 | 14334 ft | 320 kts | 259° |
| 2026-05-05 18:33 | 50.11702 | 13.61586 | 14094 ft | 320 kts | 259° |
| 2026-05-05 18:33 | 50.11383 | 13.58161 | 13860 ft | 319 kts | 259° |
| 2026-05-05 18:33 | 50.11062 | 13.54739 | 13624 ft | 318 kts | 259° |
| 2026-05-05 18:33 | 50.10740 | 13.51334 | 13370 ft | 317 kts | 259° |
| 2026-05-05 18:34 | 50.10413 | 13.47937 | 13107 ft | 316 kts | 259° |
| 2026-05-05 18:34 | 50.10087 | 13.44560 | 12848 ft | 315 kts | 259° |
| 2026-05-05 18:34 | 50.09762 | 13.41196 | 12589 ft | 313 kts | 259° |
| 2026-05-05 18:34 | 50.09440 | 13.37851 | 12334 ft | 312 kts | 259° |
| 2026-05-05 18:35 | 50.09120 | 13.34517 | 12082 ft | 311 kts | 259° |
| 2026-05-05 18:35 | 50.08901 | 13.31175 | 11783 ft | 310 kts | 265° |
| 2026-05-05 18:35 | 50.08826 | 13.27839 | 11406 ft | 308 kts | 265° |
| 2026-05-05 18:35 | 50.08746 | 13.24515 | 11030 ft | 306 kts | 265° |
| 2026-05-05 18:36 | 50.08664 | 13.21224 | 10648 ft | 303 kts | 265° |
| 2026-05-05 18:36 | 50.08579 | 13.17951 | 10281 ft | 302 kts | 265° |
| 2026-05-05 18:36 | 50.08492 | 13.14684 | 10000 ft | 301 kts | 265° |
| 2026-05-05 18:36 | 50.08401 | 13.11434 | 9740 ft | 299 kts | 265° |
| 2026-05-05 18:37 | 50.08311 | 13.08224 | 9462 ft | 293 kts | 265° |
| 2026-05-05 18:37 | 50.08223 | 13.05085 | 9172 ft | 288 kts | 265° |
| 2026-05-05 18:37 | 50.08164 | 13.01981 | 8890 ft | 287 kts | 270° |
| 2026-05-05 18:37 | 50.08430 | 12.98943 | 8612 ft | 289 kts | 281° |
| 2026-05-05 18:38 | 50.09083 | 12.95972 | 8335 ft | 290 kts | 289° |
| 2026-05-05 18:38 | 50.09820 | 12.93054 | 8054 ft | 289 kts | 289° |
| 2026-05-05 18:38 | 50.10549 | 12.90141 | 7770 ft | 288 kts | 289° |
| 2026-05-05 18:38 | 50.11273 | 12.87225 | 7497 ft | 288 kts | 289° |
| 2026-05-05 18:39 | 50.11991 | 12.84320 | 7264 ft | 287 kts | 289° |
| 2026-05-05 18:39 | 50.12706 | 12.81412 | 7044 ft | 286 kts | 289° |
| 2026-05-05 18:39 | 50.13418 | 12.78521 | 6826 ft | 286 kts | 289° |
| 2026-05-05 18:39 | 50.14132 | 12.75632 | 6609 ft | 285 kts | 289° |
| 2026-05-05 18:40 | 50.14842 | 12.72753 | 6385 ft | 284 kts | 289° |
| 2026-05-05 18:40 | 50.15548 | 12.69886 | 6168 ft | 282 kts | 289° |
| 2026-05-05 18:40 | 50.16244 | 12.67068 | 5940 ft | 274 kts | 289° |
| 2026-05-05 18:40 | 50.16916 | 12.64338 | 5701 ft | 265 kts | 289° |
| 2026-05-05 18:41 | 50.17576 | 12.61696 | 5482 ft | 257 kts | 290° |
| 2026-05-05 18:41 | 50.18251 | 12.59155 | 5255 ft | 250 kts | 291° |
| 2026-05-05 18:41 | 50.18945 | 12.56706 | 5028 ft | 245 kts | 298° |
| 2026-05-05 18:41 | 50.20041 | 12.54747 | 4844 ft | 241 kts | 323° |
| 2026-05-05 18:42 | 50.21529 | 12.53678 | 4692 ft | 234 kts | 348° |
| 2026-05-05 18:42 | 50.23114 | 12.53629 | 4577 ft | 223 kts | 13° |
| 2026-05-05 18:42 | 50.24522 | 12.54457 | 4520 ft | 209 kts | 29° |
| 2026-05-05 18:42 | 50.25770 | 12.55433 | 4507 ft | 193 kts | 29° |
| 2026-05-05 18:43 | 50.26925 | 12.56328 | 4484 ft | 177 kts | 29° |
| 2026-05-05 18:43 | 50.27840 | 12.57428 | 4470 ft | 159 kts | 53° |
| 2026-05-05 18:43 | 50.28368 | 12.58865 | 4509 ft | 149 kts | 74° |
| 2026-05-05 18:43 | 50.28531 | 12.60425 | 4508 ft | 143 kts | 94° |
| 2026-05-05 18:44 | 50.28348 | 12.61929 | 4504 ft | 140 kts | 112° |
| 2026-05-05 18:44 | 50.27964 | 12.63327 | 4503 ft | 140 kts | 114° |
| 2026-05-05 18:44 | 50.27583 | 12.64726 | 4502 ft | 140 kts | 114° |
| 2026-05-05 18:44 | 50.27204 | 12.66124 | 4504 ft | 139 kts | 114° |
| 2026-05-05 18:45 | 50.26826 | 12.67524 | 4502 ft | 140 kts | 114° |
| 2026-05-05 18:45 | 50.26447 | 12.68927 | 4506 ft | 140 kts | 114° |
| 2026-05-05 18:45 | 50.26067 | 12.70327 | 4504 ft | 140 kts | 114° |
| 2026-05-05 18:45 | 50.25685 | 12.71736 | 4370 ft | 141 kts | 113° |
| 2026-05-05 18:46 | 50.25311 | 12.73120 | 4209 ft | 139 kts | 113° |
| 2026-05-05 18:46 | 50.24935 | 12.74509 | 4051 ft | 139 kts | 113° |
| 2026-05-05 18:46 | 50.24558 | 12.75893 | 3904 ft | 138 kts | 114° |
| 2026-05-05 18:46 | 50.24179 | 12.77282 | 3758 ft | 139 kts | 113° |
| 2026-05-05 18:47 | 50.23802 | 12.78670 | 3587 ft | 139 kts | 113° |
| 2026-05-05 18:47 | 50.23423 | 12.80056 | 3414 ft | 139 kts | 112° |
| 2026-05-05 18:47 | 50.23041 | 12.81446 | 3224 ft | 139 kts | 112° |
| 2026-05-05 18:47 | 50.22663 | 12.82839 | 3057 ft | 139 kts | 112° |
| 2026-05-05 18:48 | 50.22293 | 12.84243 | 2820 ft | 140 kts | 111° |
| 2026-05-05 18:48 | 50.21934 | 12.85654 | 2592 ft | 140 kts | 111° |
| 2026-05-05 18:48 | 50.21527 | 12.87036 | 2382 ft | 139 kts | 112° |
| 2026-05-05 18:48 | 50.21157 | 12.88421 | 2248 ft | 138 kts | 109° |
| 2026-05-05 18:49 | 50.20782 | 12.89794 | 2093 ft | 139 kts | 109° |
| 2026-05-05 18:49 | 50.20407 | 12.91121 | 2000 ft | 111 kts | 112° |
| 2026-05-05 18:49 | 50.20190 | 12.91947 | 1996 ft | 52 kts | 114° |
| 2026-05-05 18:49 | 50.20084 | 12.92319 | 1996 ft | 31 kts | 113° |
| 2026-05-05 18:50 | 50.20002 | 12.92627 | 1996 ft | 30 kts | 113° |
| 2026-05-05 18:50 | 50.19919 | 12.92850 | 1994 ft | 8 kts | 103° |
| 2026-05-05 18:50 | 50.19931 | 12.92852 | 1994 ft | 4 kts | 312° |
| 2026-05-05 18:50 | 50.19960 | 12.92776 | 1993 ft | 11 kts | 295° |
| 2026-05-05 18:51 | 50.19989 | 12.92671 | 1995 ft | 10 kts | 294° |
| 2026-05-05 18:51 | 50.20021 | 12.92557 | 1998 ft | 11 kts | 294° |
| 2026-05-05 18:51 | 50.20051 | 12.92454 | 1996 ft | 10 kts | 293° |
| 2026-05-05 18:51 | 50.20092 | 12.92301 | 1997 ft | 22 kts | 292° |
| 2026-05-05 18:52 | 50.20152 | 12.92068 | 1994 ft | 24 kts | 293° |
| 2026-05-05 18:52 | 50.20218 | 12.91829 | 1997 ft | 24 kts | 293° |
| 2026-05-05 18:52 | 50.20288 | 12.91588 | 1999 ft | 24 kts | 293° |
| 2026-05-05 18:52 | 50.20353 | 12.91350 | 2000 ft | 24 kts | 293° |
| 2026-05-05 18:53 | 50.20346 | 12.91252 | 2000 ft | 6 kts | 217° |
| 2026-05-05 18:53 | 50.20315 | 12.91223 | 2000 ft | 5 kts | 206° |
| 2026-05-05 18:53 | 50.20277 | 12.91198 | 1999 ft | 7 kts | 202° |
| 2026-05-05 18:53 | 50.20223 | 12.91205 | 1996 ft | 7 kts | 184° |
| 2026-05-05 18:54 | 50.20210 | 12.91198 | 1994 ft | 0 kts | 200° |